sensor_id;sensor_type;location;lat;lon;timestamp;P1;durP1;ratioP1;P2;durP2;ratioP2
66163;SDS011;52962;51.088;3.096;2023-02-11T00:01:21;0.63;;;0.63;;
66163;SDS011;52962;51.088;3.096;2023-02-11T00:03:53;0.70;;;0.70;;
66163;SDS011;52962;51.088;3.096;2023-02-11T00:06:21;1.25;;;0.68;;
66163;SDS011;52962;51.088;3.096;2023-02-11T00:08:50;0.80;;;0.77;;
66163;SDS011;52962;51.088;3.096;2023-02-11T00:11:19;0.75;;;0.75;;
66163;SDS011;52962;51.088;3.096;2023-02-11T00:13:52;0.50;;;0.50;;
66163;SDS011;52962;51.088;3.096;2023-02-11T00:16:20;1.30;;;0.63;;
66163;SDS011;52962;51.088;3.096;2023-02-11T00:18:49;3.90;;;0.80;;
66163;SDS011;52962;51.088;3.096;2023-02-11T00:21:19;1.23;;;0.63;;
66163;SDS011;52962;51.088;3.096;2023-02-11T00:23:49;1.92;;;1.10;;
66163;SDS011;52962;51.088;3.096;2023-02-11T00:28:47;3.25;;;0.77;;
66163;SDS011;52962;51.088;3.096;2023-02-11T00:31:21;1.50;;;0.90;;
66163;SDS011;52962;51.088;3.096;2023-02-11T00:33:51;0.25;;;0.25;;
66163;SDS011;52962;51.088;3.096;2023-02-11T00:38:50;1.15;;;0.82;;
66163;SDS011;52962;51.088;3.096;2023-02-11T00:41:19;5.88;;;1.23;;
66163;SDS011;52962;51.088;3.096;2023-02-11T00:43:50;0.60;;;0.50;;
66163;SDS011;52962;51.088;3.096;2023-02-11T00:46:20;0.45;;;0.45;;
66163;SDS011;52962;51.088;3.096;2023-02-11T00:48:50;2.53;;;0.77;;
66163;SDS011;52962;51.088;3.096;2023-02-11T00:51:20;0.25;;;0.25;;
66163;SDS011;52962;51.088;3.096;2023-02-11T00:53:49;1.70;;;0.68;;
66163;SDS011;52962;51.088;3.096;2023-02-11T00:56:17;1.10;;;0.47;;
66163;SDS011;52962;51.088;3.096;2023-02-11T01:01:16;1.55;;;0.55;;
66163;SDS011;52962;51.088;3.096;2023-02-11T01:03:45;0.52;;;0.50;;
66163;SDS011;52962;51.088;3.096;2023-02-11T01:06:13;1.17;;;0.63;;
66163;SDS011;52962;51.088;3.096;2023-02-11T01:08:42;0.75;;;0.75;;
66163;SDS011;52962;51.088;3.096;2023-02-11T01:11:12;0.77;;;0.77;;
66163;SDS011;52962;51.088;3.096;2023-02-11T01:13:45;3.55;;;0.77;;
66163;SDS011;52962;51.088;3.096;2023-02-11T01:16:14;0.82;;;0.70;;
66163;SDS011;52962;51.088;3.096;2023-02-11T01:18:44;0.77;;;0.77;;
66163;SDS011;52962;51.088;3.096;2023-02-11T01:21:16;0.70;;;0.63;;
66163;SDS011;52962;51.088;3.096;2023-02-11T01:23:44;0.30;;;0.30;;
66163;SDS011;52962;51.088;3.096;2023-02-11T01:26:12;0.30;;;0.30;;
66163;SDS011;52962;51.088;3.096;2023-02-11T01:28:40;0.95;;;0.38;;
66163;SDS011;52962;51.088;3.096;2023-02-11T01:33:38;1.33;;;0.80;;
66163;SDS011;52962;51.088;3.096;2023-02-11T01:36:10;0.60;;;0.60;;
66163;SDS011;52962;51.088;3.096;2023-02-11T01:38:39;1.30;;;0.70;;
66163;SDS011;52962;51.088;3.096;2023-02-11T01:41:08;0.45;;;0.45;;
66163;SDS011;52962;51.088;3.096;2023-02-11T01:43:39;3.03;;;0.85;;
66163;SDS011;52962;51.088;3.096;2023-02-11T01:48:59;0.60;;;0.60;;
66163;SDS011;52962;51.088;3.096;2023-02-11T01:51:33;1.00;;;0.57;;
66163;SDS011;52962;51.088;3.096;2023-02-11T01:54:05;1.13;;;0.77;;
66163;SDS011;52962;51.088;3.096;2023-02-11T01:56:54;0.85;;;0.70;;
66163;SDS011;52962;51.088;3.096;2023-02-11T01:59:45;0.10;;;0.10;;
66163;SDS011;52962;51.088;3.096;2023-02-11T02:02:25;1.30;;;0.80;;
66163;SDS011;52962;51.088;3.096;2023-02-11T02:05:03;2.00;;;0.70;;
66163;SDS011;52962;51.088;3.096;2023-02-11T02:07:40;1.40;;;0.75;;
66163;SDS011;52962;51.088;3.096;2023-02-11T02:10:14;0.50;;;0.50;;
66163;SDS011;52962;51.088;3.096;2023-02-11T02:12:46;0.65;;;0.55;;
66163;SDS011;52962;51.088;3.096;2023-02-11T02:15:18;0.43;;;0.40;;
66163;SDS011;52962;51.088;3.096;2023-02-11T02:18:02;0.65;;;0.63;;
66163;SDS011;52962;51.088;3.096;2023-02-11T02:20:51;0.50;;;0.50;;
66163;SDS011;52962;51.088;3.096;2023-02-11T02:23:47;1.00;;;1.00;;
66163;SDS011;52962;51.088;3.096;2023-02-11T02:26:35;2.00;;;0.70;;
66163;SDS011;52962;51.088;3.096;2023-02-11T02:29:20;0.98;;;0.77;;
66163;SDS011;52962;51.088;3.096;2023-02-11T02:32:20;0.52;;;0.52;;
66163;SDS011;52962;51.088;3.096;2023-02-11T02:35:00;0.38;;;0.38;;
66163;SDS011;52962;51.088;3.096;2023-02-11T02:37:39;0.80;;;0.80;;
66163;SDS011;52962;51.088;3.096;2023-02-11T02:40:14;1.52;;;0.65;;
66163;SDS011;52962;51.088;3.096;2023-02-11T02:42:47;0.73;;;0.45;;
66163;SDS011;52962;51.088;3.096;2023-02-11T02:45:17;0.85;;;0.85;;
66163;SDS011;52962;51.088;3.096;2023-02-11T02:47:48;0.65;;;0.60;;
66163;SDS011;52962;51.088;3.096;2023-02-11T02:50:16;1.40;;;0.70;;
66163;SDS011;52962;51.088;3.096;2023-02-11T02:52:54;2.92;;;1.23;;
66163;SDS011;52962;51.088;3.096;2023-02-11T02:55:33;1.20;;;0.93;;
66163;SDS011;52962;51.088;3.096;2023-02-11T02:58:24;1.17;;;0.68;;
66163;SDS011;52962;51.088;3.096;2023-02-11T03:01:27;0.75;;;0.57;;
66163;SDS011;52962;51.088;3.096;2023-02-11T03:04:05;0.70;;;0.70;;
66163;SDS011;52962;51.088;3.096;2023-02-11T03:06:43;5.05;;;1.10;;
66163;SDS011;52962;51.088;3.096;2023-02-11T03:09:17;1.00;;;0.98;;
66163;SDS011;52962;51.088;3.096;2023-02-11T03:11:52;2.05;;;0.88;;
66163;SDS011;52962;51.088;3.096;2023-02-11T03:16:52;1.80;;;1.05;;
66163;SDS011;52962;51.088;3.096;2023-02-11T03:19:27;0.70;;;0.70;;
66163;SDS011;52962;51.088;3.096;2023-02-11T03:21:59;0.50;;;0.50;;
66163;SDS011;52962;51.088;3.096;2023-02-11T03:24:33;1.23;;;0.98;;
66163;SDS011;52962;51.088;3.096;2023-02-11T03:27:05;1.58;;;0.93;;
66163;SDS011;52962;51.088;3.096;2023-02-11T03:29:40;1.15;;;0.80;;
66163;SDS011;52962;51.088;3.096;2023-02-11T03:32:16;0.43;;;0.43;;
66163;SDS011;52962;51.088;3.096;2023-02-11T03:34:51;2.03;;;0.90;;
66163;SDS011;52962;51.088;3.096;2023-02-11T03:37:24;0.63;;;0.57;;
66163;SDS011;52962;51.088;3.096;2023-02-11T03:39:59;1.45;;;1.17;;
66163;SDS011;52962;51.088;3.096;2023-02-11T03:42:32;0.20;;;0.20;;
66163;SDS011;52962;51.088;3.096;2023-02-11T03:45:06;1.58;;;0.88;;
66163;SDS011;52962;51.088;3.096;2023-02-11T03:47:37;0.77;;;0.77;;
66163;SDS011;52962;51.088;3.096;2023-02-11T03:50:10;3.35;;;0.70;;
66163;SDS011;52962;51.088;3.096;2023-02-11T03:52:41;1.35;;;0.65;;
66163;SDS011;52962;51.088;3.096;2023-02-11T03:55:12;1.00;;;0.77;;
66163;SDS011;52962;51.088;3.096;2023-02-11T03:57:44;1.08;;;0.70;;
66163;SDS011;52962;51.088;3.096;2023-02-11T04:00:13;4.90;;;1.42;;
66163;SDS011;52962;51.088;3.096;2023-02-11T04:02:42;1.00;;;0.90;;
66163;SDS011;52962;51.088;3.096;2023-02-11T04:05:13;1.25;;;1.15;;
66163;SDS011;52962;51.088;3.096;2023-02-11T04:07:42;0.77;;;0.77;;
66163;SDS011;52962;51.088;3.096;2023-02-11T04:10:11;0.90;;;0.65;;
66163;SDS011;52962;51.088;3.096;2023-02-11T04:12:40;0.95;;;0.95;;
66163;SDS011;52962;51.088;3.096;2023-02-11T04:15:08;1.42;;;1.08;;
66163;SDS011;52962;51.088;3.096;2023-02-11T04:17:38;1.98;;;1.35;;
66163;SDS011;52962;51.088;3.096;2023-02-11T04:20:06;1.25;;;1.17;;
66163;SDS011;52962;51.088;3.096;2023-02-11T04:22:36;2.00;;;1.45;;
66163;SDS011;52962;51.088;3.096;2023-02-11T04:25:05;1.48;;;1.38;;
66163;SDS011;52962;51.088;3.096;2023-02-11T04:27:35;1.40;;;1.30;;
66163;SDS011;52962;51.088;3.096;2023-02-11T04:30:06;0.82;;;0.55;;
66163;SDS011;52962;51.088;3.096;2023-02-11T04:32:35;1.65;;;1.08;;
66163;SDS011;52962;51.088;3.096;2023-02-11T04:37:33;1.02;;;0.88;;
66163;SDS011;52962;51.088;3.096;2023-02-11T04:40:03;1.38;;;1.27;;
66163;SDS011;52962;51.088;3.096;2023-02-11T04:42:31;1.02;;;0.98;;
66163;SDS011;52962;51.088;3.096;2023-02-11T04:44:59;3.90;;;1.80;;
66163;SDS011;52962;51.088;3.096;2023-02-11T04:47:31;1.67;;;1.48;;
66163;SDS011;52962;51.088;3.096;2023-02-11T04:49:59;1.30;;;1.23;;
66163;SDS011;52962;51.088;3.096;2023-02-11T04:52:27;1.20;;;1.10;;
66163;SDS011;52962;51.088;3.096;2023-02-11T04:54:55;1.65;;;1.23;;
66163;SDS011;52962;51.088;3.096;2023-02-11T04:57:25;4.68;;;1.33;;
66163;SDS011;52962;51.088;3.096;2023-02-11T04:59:53;1.35;;;0.98;;
66163;SDS011;52962;51.088;3.096;2023-02-11T05:02:21;0.80;;;0.80;;
66163;SDS011;52962;51.088;3.096;2023-02-11T05:04:49;1.58;;;1.48;;
66163;SDS011;52962;51.088;3.096;2023-02-11T05:07:17;0.50;;;0.50;;
66163;SDS011;52962;51.088;3.096;2023-02-11T05:09:45;0.95;;;0.95;;
66163;SDS011;52962;51.088;3.096;2023-02-11T05:12:14;1.58;;;1.48;;
66163;SDS011;52962;51.088;3.096;2023-02-11T05:14:44;0.88;;;0.82;;
66163;SDS011;52962;51.088;3.096;2023-02-11T05:17:12;1.27;;;1.17;;
66163;SDS011;52962;51.088;3.096;2023-02-11T05:19:41;1.35;;;1.25;;
66163;SDS011;52962;51.088;3.096;2023-02-11T05:27:06;1.35;;;1.25;;
66163;SDS011;52962;51.088;3.096;2023-02-11T05:29:34;1.48;;;1.10;;
66163;SDS011;52962;51.088;3.096;2023-02-11T05:32:04;1.23;;;1.13;;
66163;SDS011;52962;51.088;3.096;2023-02-11T05:34:34;1.40;;;0.98;;
66163;SDS011;52962;51.088;3.096;2023-02-11T05:37:03;5.10;;;1.15;;
66163;SDS011;52962;51.088;3.096;2023-02-11T05:39:31;1.17;;;1.02;;
66163;SDS011;52962;51.088;3.096;2023-02-11T05:41:59;1.13;;;0.98;;
66163;SDS011;52962;51.088;3.096;2023-02-11T05:44:28;1.10;;;0.88;;
66163;SDS011;52962;51.088;3.096;2023-02-11T05:46:58;1.27;;;1.05;;
66163;SDS011;52962;51.088;3.096;2023-02-11T05:49:28;1.00;;;0.98;;
66163;SDS011;52962;51.088;3.096;2023-02-11T05:51:56;1.73;;;1.30;;
66163;SDS011;52962;51.088;3.096;2023-02-11T05:54:24;1.38;;;1.10;;
66163;SDS011;52962;51.088;3.096;2023-02-11T05:56:52;1.33;;;1.23;;
66163;SDS011;52962;51.088;3.096;2023-02-11T05:59:21;1.30;;;0.93;;
66163;SDS011;52962;51.088;3.096;2023-02-11T06:01:49;2.05;;;1.35;;
66163;SDS011;52962;51.088;3.096;2023-02-11T06:04:17;3.25;;;1.65;;
66163;SDS011;52962;51.088;3.096;2023-02-11T06:06:47;1.50;;;1.27;;
66163;SDS011;52962;51.088;3.096;2023-02-11T06:09:16;1.35;;;1.10;;
66163;SDS011;52962;51.088;3.096;2023-02-11T06:11:47;1.30;;;1.20;;
66163;SDS011;52962;51.088;3.096;2023-02-11T06:16:44;2.10;;;1.20;;
66163;SDS011;52962;51.088;3.096;2023-02-11T06:19:13;2.25;;;2.05;;
66163;SDS011;52962;51.088;3.096;2023-02-11T06:21:42;1.65;;;1.30;;
66163;SDS011;52962;51.088;3.096;2023-02-11T06:24:11;1.95;;;1.45;;
66163;SDS011;52962;51.088;3.096;2023-02-11T06:26:39;2.10;;;1.38;;
66163;SDS011;52962;51.088;3.096;2023-02-11T06:29:08;1.65;;;1.13;;
66163;SDS011;52962;51.088;3.096;2023-02-11T06:31:36;1.25;;;1.08;;
66163;SDS011;52962;51.088;3.096;2023-02-11T06:34:05;1.23;;;0.90;;
66163;SDS011;52962;51.088;3.096;2023-02-11T06:36:34;0.77;;;0.77;;
66163;SDS011;52962;51.088;3.096;2023-02-11T06:39:05;1.70;;;1.48;;
66163;SDS011;52962;51.088;3.096;2023-02-11T06:41:34;2.03;;;1.60;;
66163;SDS011;52962;51.088;3.096;2023-02-11T06:44:03;1.77;;;1.27;;
66163;SDS011;52962;51.088;3.096;2023-02-11T06:46:31;1.90;;;1.77;;
66163;SDS011;52962;51.088;3.096;2023-02-11T06:49:00;2.20;;;1.90;;
66163;SDS011;52962;51.088;3.096;2023-02-11T06:51:28;2.67;;;1.40;;
66163;SDS011;52962;51.088;3.096;2023-02-11T06:53:56;1.65;;;1.55;;
66163;SDS011;52962;51.088;3.096;2023-02-11T06:56:24;2.88;;;1.90;;
66163;SDS011;52962;51.088;3.096;2023-02-11T06:58:55;3.00;;;2.47;;
66163;SDS011;52962;51.088;3.096;2023-02-11T07:01:23;2.13;;;1.73;;
66163;SDS011;52962;51.088;3.096;2023-02-11T07:03:53;3.28;;;2.22;;
66163;SDS011;52962;51.088;3.096;2023-02-11T07:06:22;2.03;;;1.45;;
66163;SDS011;52962;51.088;3.096;2023-02-11T07:08:54;2.70;;;1.88;;
66163;SDS011;52962;51.088;3.096;2023-02-11T07:11:24;2.83;;;2.63;;
66163;SDS011;52962;51.088;3.096;2023-02-11T07:13:59;2.85;;;2.45;;
66163;SDS011;52962;51.088;3.096;2023-02-11T07:16:28;2.47;;;2.30;;
66163;SDS011;52962;51.088;3.096;2023-02-11T07:18:58;2.83;;;2.63;;
66163;SDS011;52962;51.088;3.096;2023-02-11T07:21:26;2.92;;;2.72;;
66163;SDS011;52962;51.088;3.096;2023-02-11T07:23:54;3.10;;;1.85;;
66163;SDS011;52962;51.088;3.096;2023-02-11T07:26:23;1.65;;;1.52;;
66163;SDS011;52962;51.088;3.096;2023-02-11T07:28:57;2.92;;;2.22;;
66163;SDS011;52962;51.088;3.096;2023-02-11T07:31:26;2.75;;;2.55;;
66163;SDS011;52962;51.088;3.096;2023-02-11T07:33:57;2.38;;;1.88;;
66163;SDS011;52962;51.088;3.096;2023-02-11T07:36:27;2.75;;;1.90;;
66163;SDS011;52962;51.088;3.096;2023-02-11T07:38:58;3.45;;;3.15;;
66163;SDS011;52962;51.088;3.096;2023-02-11T07:41:26;2.28;;;1.88;;
66163;SDS011;52962;51.088;3.096;2023-02-11T07:46:25;2.00;;;1.40;;
66163;SDS011;52962;51.088;3.096;2023-02-11T07:48:55;2.47;;;1.77;;
66163;SDS011;52962;51.088;3.096;2023-02-11T07:53:52;3.38;;;1.73;;
66163;SDS011;52962;51.088;3.096;2023-02-11T07:56:21;3.33;;;3.05;;
66163;SDS011;52962;51.088;3.096;2023-02-11T07:58:50;3.03;;;2.47;;
66163;SDS011;52962;51.088;3.096;2023-02-11T08:01:21;2.75;;;2.05;;
66163;SDS011;52962;51.088;3.096;2023-02-11T08:03:51;3.25;;;3.05;;
66163;SDS011;52962;51.088;3.096;2023-02-11T08:06:21;3.15;;;2.22;;
66163;SDS011;52962;51.088;3.096;2023-02-11T08:08:50;3.92;;;2.55;;
66163;SDS011;52962;51.088;3.096;2023-02-11T08:13:48;2.03;;;1.77;;
66163;SDS011;52962;51.088;3.096;2023-02-11T08:16:18;2.88;;;2.10;;
66163;SDS011;52962;51.088;3.096;2023-02-11T08:18:49;3.30;;;2.60;;
66163;SDS011;52962;51.088;3.096;2023-02-11T08:21:18;4.05;;;3.20;;
66163;SDS011;52962;51.088;3.096;2023-02-11T08:23:48;1.73;;;1.63;;
66163;SDS011;52962;51.088;3.096;2023-02-11T08:26:17;5.32;;;3.58;;
66163;SDS011;52962;51.088;3.096;2023-02-11T08:28:47;3.60;;;2.47;;
66163;SDS011;52962;51.088;3.096;2023-02-11T08:31:18;4.45;;;3.63;;
66163;SDS011;52962;51.088;3.096;2023-02-11T08:33:51;4.90;;;2.78;;
66163;SDS011;52962;51.088;3.096;2023-02-11T08:36:24;2.83;;;2.60;;
66163;SDS011;52962;51.088;3.096;2023-02-11T08:38:54;3.20;;;2.67;;
66163;SDS011;52962;51.088;3.096;2023-02-11T08:41:43;2.42;;;2.22;;
66163;SDS011;52962;51.088;3.096;2023-02-11T08:44:13;2.25;;;2.05;;
66163;SDS011;52962;51.088;3.096;2023-02-11T08:46:42;3.88;;;2.50;;
66163;SDS011;52962;51.088;3.096;2023-02-11T08:49:10;3.50;;;2.78;;
66163;SDS011;52962;51.088;3.096;2023-02-11T08:51:38;4.28;;;3.63;;
66163;SDS011;52962;51.088;3.096;2023-02-11T08:54:06;2.80;;;2.55;;
66163;SDS011;52962;51.088;3.096;2023-02-11T08:56:37;2.38;;;2.17;;
66163;SDS011;52962;51.088;3.096;2023-02-11T08:59:05;4.32;;;3.00;;
66163;SDS011;52962;51.088;3.096;2023-02-11T09:01:35;6.78;;;2.50;;
66163;SDS011;52962;51.088;3.096;2023-02-11T09:06:33;3.78;;;2.58;;
66163;SDS011;52962;51.088;3.096;2023-02-11T09:09:02;3.35;;;2.92;;
66163;SDS011;52962;51.088;3.096;2023-02-11T09:11:31;2.13;;;1.58;;
66163;SDS011;52962;51.088;3.096;2023-02-11T09:14:01;5.32;;;3.83;;
66163;SDS011;52962;51.088;3.096;2023-02-11T09:16:33;5.43;;;3.25;;
66163;SDS011;52962;51.088;3.096;2023-02-11T09:19:06;2.63;;;2.42;;
66163;SDS011;52962;51.088;3.096;2023-02-11T09:21:34;3.67;;;2.97;;
66163;SDS011;52962;51.088;3.096;2023-02-11T09:31:33;2.97;;;2.67;;
66163;SDS011;52962;51.088;3.096;2023-02-11T09:34:02;3.38;;;2.33;;
66163;SDS011;52962;51.088;3.096;2023-02-11T09:36:37;3.03;;;2.78;;
66163;SDS011;52962;51.088;3.096;2023-02-11T09:39:07;4.05;;;3.20;;
66163;SDS011;52962;51.088;3.096;2023-02-11T09:41:40;2.95;;;2.75;;
66163;SDS011;52962;51.088;3.096;2023-02-11T09:44:22;3.15;;;2.50;;
66163;SDS011;52962;51.088;3.096;2023-02-11T09:46:53;3.78;;;2.67;;
66163;SDS011;52962;51.088;3.096;2023-02-11T09:49:25;3.78;;;3.33;;
66163;SDS011;52962;51.088;3.096;2023-02-11T09:52:04;3.90;;;2.97;;
66163;SDS011;52962;51.088;3.096;2023-02-11T09:54:35;4.93;;;3.50;;
66163;SDS011;52962;51.088;3.096;2023-02-11T09:57:11;8.05;;;3.30;;
66163;SDS011;52962;51.088;3.096;2023-02-11T09:59:54;5.28;;;2.88;;
66163;SDS011;52962;51.088;3.096;2023-02-11T10:02:23;4.13;;;3.83;;
66163;SDS011;52962;51.088;3.096;2023-02-11T10:08:00;5.22;;;4.15;;
66163;SDS011;52962;51.088;3.096;2023-02-11T10:10:43;3.28;;;2.90;;
66163;SDS011;52962;51.088;3.096;2023-02-11T10:13:26;3.65;;;3.25;;
66163;SDS011;52962;51.088;3.096;2023-02-11T10:16:12;5.32;;;3.45;;
66163;SDS011;52962;51.088;3.096;2023-02-11T10:18:57;2.78;;;2.53;;
66163;SDS011;52962;51.088;3.096;2023-02-11T10:21:36;3.67;;;3.33;;
66163;SDS011;52962;51.088;3.096;2023-02-11T10:24:13;3.00;;;2.25;;
66163;SDS011;52962;51.088;3.096;2023-02-11T10:26:44;3.47;;;2.67;;
66163;SDS011;52962;51.088;3.096;2023-02-11T10:29:17;4.10;;;2.53;;
66163;SDS011;52962;51.088;3.096;2023-02-11T10:31:53;3.63;;;3.15;;
66163;SDS011;52962;51.088;3.096;2023-02-11T10:34:24;3.13;;;2.88;;
66163;SDS011;52962;51.088;3.096;2023-02-11T10:36:52;4.03;;;3.58;;
66163;SDS011;52962;51.088;3.096;2023-02-11T10:39:22;5.88;;;2.70;;
66163;SDS011;52962;51.088;3.096;2023-02-11T10:41:54;3.25;;;2.70;;
66163;SDS011;52962;51.088;3.096;2023-02-11T10:44:27;4.60;;;3.65;;
66163;SDS011;52962;51.088;3.096;2023-02-11T10:46:59;2.28;;;1.95;;
66163;SDS011;52962;51.088;3.096;2023-02-11T10:49:37;2.53;;;2.25;;
66163;SDS011;52962;51.088;3.096;2023-02-11T10:52:14;4.00;;;2.90;;
66163;SDS011;52962;51.088;3.096;2023-02-11T10:54:57;3.08;;;2.58;;
66163;SDS011;52962;51.088;3.096;2023-02-11T10:57:30;4.70;;;2.90;;
66163;SDS011;52962;51.088;3.096;2023-02-11T11:00:04;2.90;;;2.42;;
66163;SDS011;52962;51.088;3.096;2023-02-11T11:02:50;2.97;;;2.17;;
66163;SDS011;52962;51.088;3.096;2023-02-11T11:05:22;3.85;;;2.90;;
66163;SDS011;52962;51.088;3.096;2023-02-11T11:07:56;2.80;;;2.58;;
66163;SDS011;52962;51.088;3.096;2023-02-11T11:10:34;3.60;;;2.22;;
66163;SDS011;52962;51.088;3.096;2023-02-11T11:13:22;2.97;;;2.42;;
66163;SDS011;52962;51.088;3.096;2023-02-11T11:16:10;2.30;;;2.00;;
66163;SDS011;52962;51.088;3.096;2023-02-11T11:18:44;5.60;;;3.15;;
66163;SDS011;52962;51.088;3.096;2023-02-11T11:21:16;2.08;;;1.83;;
66163;SDS011;52962;51.088;3.096;2023-02-11T11:23:51;3.45;;;2.05;;
66163;SDS011;52962;51.088;3.096;2023-02-11T11:26:24;4.05;;;2.47;;
66163;SDS011;52962;51.088;3.096;2023-02-11T11:28:56;3.80;;;3.40;;
66163;SDS011;52962;51.088;3.096;2023-02-11T11:31:29;2.63;;;2.42;;
66163;SDS011;52962;51.088;3.096;2023-02-11T11:34:02;4.18;;;3.05;;
66163;SDS011;52962;51.088;3.096;2023-02-11T11:36:42;3.28;;;2.85;;
66163;SDS011;52962;51.088;3.096;2023-02-11T11:39:16;3.97;;;2.53;;
66163;SDS011;52962;51.088;3.096;2023-02-11T11:41:50;4.57;;;2.60;;
66163;SDS011;52962;51.088;3.096;2023-02-11T11:44:29;2.20;;;2.00;;
66163;SDS011;52962;51.088;3.096;2023-02-11T11:47:14;3.17;;;2.83;;
66163;SDS011;52962;51.088;3.096;2023-02-11T11:49:50;2.72;;;2.50;;
66163;SDS011;52962;51.088;3.096;2023-02-11T11:52:47;2.70;;;2.50;;
66163;SDS011;52962;51.088;3.096;2023-02-11T11:55:21;3.65;;;2.92;;
66163;SDS011;52962;51.088;3.096;2023-02-11T11:57:57;5.40;;;2.22;;
66163;SDS011;52962;51.088;3.096;2023-02-11T12:00:27;3.22;;;2.70;;
66163;SDS011;52962;51.088;3.096;2023-02-11T12:03:05;2.55;;;2.28;;
66163;SDS011;52962;51.088;3.096;2023-02-11T12:05:51;3.38;;;2.75;;
66163;SDS011;52962;51.088;3.096;2023-02-11T12:08:37;6.93;;;2.60;;
66163;SDS011;52962;51.088;3.096;2023-02-11T12:11:19;2.45;;;2.25;;
66163;SDS011;52962;51.088;3.096;2023-02-11T12:14:02;5.00;;;3.03;;
66163;SDS011;52962;51.088;3.096;2023-02-11T12:16:43;3.75;;;3.05;;
66163;SDS011;52962;51.088;3.096;2023-02-11T12:19:28;2.38;;;2.17;;
66163;SDS011;52962;51.088;3.096;2023-02-11T12:22:19;3.10;;;2.42;;
66163;SDS011;52962;51.088;3.096;2023-02-11T12:25:00;2.55;;;1.63;;
66163;SDS011;52962;51.088;3.096;2023-02-11T12:27:44;2.85;;;2.17;;
66163;SDS011;52962;51.088;3.096;2023-02-11T12:30:21;4.82;;;2.85;;
66163;SDS011;52962;51.088;3.096;2023-02-11T12:33:18;3.38;;;3.08;;
66163;SDS011;52962;51.088;3.096;2023-02-11T12:35:58;3.05;;;2.50;;
66163;SDS011;52962;51.088;3.096;2023-02-11T12:38:37;3.72;;;2.67;;
66163;SDS011;52962;51.088;3.096;2023-02-11T12:41:20;4.07;;;2.90;;
66163;SDS011;52962;51.088;3.096;2023-02-11T12:44:19;2.70;;;2.25;;
66163;SDS011;52962;51.088;3.096;2023-02-11T12:46:55;2.40;;;2.20;;
66163;SDS011;52962;51.088;3.096;2023-02-11T12:49:37;2.95;;;2.70;;
66163;SDS011;52962;51.088;3.096;2023-02-11T12:52:20;3.42;;;3.13;;
66163;SDS011;52962;51.088;3.096;2023-02-11T12:55:01;2.55;;;2.25;;
66163;SDS011;52962;51.088;3.096;2023-02-11T13:00:06;2.47;;;2.08;;
66163;SDS011;52962;51.088;3.096;2023-02-11T13:02:42;2.30;;;2.10;;
66163;SDS011;52962;51.088;3.096;2023-02-11T13:05:18;5.22;;;2.53;;
66163;SDS011;52962;51.088;3.096;2023-02-11T13:07:51;3.08;;;2.17;;
66163;SDS011;52962;51.088;3.096;2023-02-11T13:10:24;4.97;;;1.88;;
66163;SDS011;52962;51.088;3.096;2023-02-11T13:12:56;2.63;;;2.33;;
66163;SDS011;52962;51.088;3.096;2023-02-11T13:15:49;2.38;;;2.17;;
66163;SDS011;52962;51.088;3.096;2023-02-11T13:21:21;3.85;;;2.10;;
66163;SDS011;52962;51.088;3.096;2023-02-11T13:23:59;3.50;;;2.33;;
66163;SDS011;52962;51.088;3.096;2023-02-11T13:26:37;3.17;;;2.47;;
66163;SDS011;52962;51.088;3.096;2023-02-11T13:29:16;2.30;;;2.10;;
66163;SDS011;52962;51.088;3.096;2023-02-11T13:31:53;3.22;;;1.90;;
66163;SDS011;52962;51.088;3.096;2023-02-11T13:34:26;1.75;;;1.65;;
66163;SDS011;52962;51.088;3.096;2023-02-11T13:37:35;2.38;;;1.98;;
66163;SDS011;52962;51.088;3.096;2023-02-11T13:40:06;2.97;;;2.22;;
66163;SDS011;52962;51.088;3.096;2023-02-11T13:42:49;2.47;;;2.08;;
66163;SDS011;52962;51.088;3.096;2023-02-11T13:45:23;1.80;;;1.65;;
66163;SDS011;52962;51.088;3.096;2023-02-11T13:47:57;2.70;;;1.88;;
66163;SDS011;52962;51.088;3.096;2023-02-11T13:50:30;2.03;;;1.92;;
66163;SDS011;52962;51.088;3.096;2023-02-11T13:53:04;2.17;;;1.98;;
66163;SDS011;52962;51.088;3.096;2023-02-11T13:55:34;3.47;;;2.28;;
66163;SDS011;52962;51.088;3.096;2023-02-11T13:58:17;3.00;;;1.80;;
66163;SDS011;52962;51.088;3.096;2023-02-11T14:00:59;2.53;;;1.95;;
66163;SDS011;52962;51.088;3.096;2023-02-11T14:03:28;2.10;;;1.73;;
66163;SDS011;52962;51.088;3.096;2023-02-11T14:06:27;3.75;;;2.08;;
66163;SDS011;52962;51.088;3.096;2023-02-11T14:09:33;1.50;;;1.40;;
66163;SDS011;52962;51.088;3.096;2023-02-11T14:12:16;1.70;;;1.58;;
66163;SDS011;52962;51.088;3.096;2023-02-11T14:14:57;3.58;;;2.35;;
66163;SDS011;52962;51.088;3.096;2023-02-11T14:17:43;2.92;;;1.85;;
66163;SDS011;52962;51.088;3.096;2023-02-11T14:20:34;4.82;;;1.85;;
66163;SDS011;52962;51.088;3.096;2023-02-11T14:23:24;2.45;;;1.73;;
66163;SDS011;52962;51.088;3.096;2023-02-11T14:25:59;1.70;;;1.38;;
66163;SDS011;52962;51.088;3.096;2023-02-11T14:28:39;1.70;;;1.60;;
66163;SDS011;52962;51.088;3.096;2023-02-11T14:31:13;2.88;;;1.77;;
66163;SDS011;52962;51.088;3.096;2023-02-11T14:33:50;3.17;;;2.10;;
66163;SDS011;52962;51.088;3.096;2023-02-11T14:39:30;1.95;;;1.40;;
66163;SDS011;52962;51.088;3.096;2023-02-11T14:42:19;3.03;;;1.70;;
66163;SDS011;52962;51.088;3.096;2023-02-11T14:44:52;1.05;;;0.95;;
66163;SDS011;52962;51.088;3.096;2023-02-11T14:47:27;1.90;;;1.42;;
66163;SDS011;52962;51.088;3.096;2023-02-11T14:50:01;5.35;;;2.25;;
66163;SDS011;52962;51.088;3.096;2023-02-11T14:52:30;2.10;;;1.45;;
66163;SDS011;52962;51.088;3.096;2023-02-11T14:55:08;2.90;;;2.60;;
66163;SDS011;52962;51.088;3.096;2023-02-11T14:58:11;2.38;;;1.92;;
66163;SDS011;52962;51.088;3.096;2023-02-11T15:00:46;3.28;;;1.90;;
66163;SDS011;52962;51.088;3.096;2023-02-11T15:03:30;1.77;;;1.40;;
66163;SDS011;52962;51.088;3.096;2023-02-11T15:06:01;1.65;;;1.52;;
66163;SDS011;52962;51.088;3.096;2023-02-11T15:08:33;2.67;;;1.92;;
66163;SDS011;52962;51.088;3.096;2023-02-11T15:11:06;3.28;;;1.73;;
66163;SDS011;52962;51.088;3.096;2023-02-11T15:13:37;2.50;;;1.50;;
66163;SDS011;52962;51.088;3.096;2023-02-11T15:16:13;2.03;;;1.60;;
66163;SDS011;52962;51.088;3.096;2023-02-11T15:18:45;9.23;;;4.82;;
66163;SDS011;52962;51.088;3.096;2023-02-11T15:21:20;4.57;;;3.45;;
66163;SDS011;52962;51.088;3.096;2023-02-11T15:23:57;3.30;;;2.97;;
66163;SDS011;52962;51.088;3.096;2023-02-11T15:26:28;4.93;;;4.47;;
66163;SDS011;52962;51.088;3.096;2023-02-11T15:28:57;2.53;;;2.33;;
66163;SDS011;52962;51.088;3.096;2023-02-11T15:31:26;2.78;;;2.58;;
66163;SDS011;52962;51.088;3.096;2023-02-11T15:33:57;2.85;;;2.63;;
66163;SDS011;52962;51.088;3.096;2023-02-11T15:36:34;2.83;;;2.53;;
66163;SDS011;52962;51.088;3.096;2023-02-11T15:39:17;6.53;;;5.82;;
66163;SDS011;52962;51.088;3.096;2023-02-11T15:44:48;2.78;;;2.58;;
66163;SDS011;52962;51.088;3.096;2023-02-11T15:47:34;2.67;;;2.40;;
66163;SDS011;52962;51.088;3.096;2023-02-11T15:50:03;3.75;;;3.35;;
66163;SDS011;52962;51.088;3.096;2023-02-11T15:52:32;2.90;;;2.53;;
66163;SDS011;52962;51.088;3.096;2023-02-11T15:55:01;2.30;;;2.10;;
66163;SDS011;52962;51.088;3.096;2023-02-11T16:00:05;3.25;;;2.15;;
66163;SDS011;52962;51.088;3.096;2023-02-11T16:02:37;2.90;;;2.40;;
66163;SDS011;52962;51.088;3.096;2023-02-11T16:05:23;3.50;;;2.28;;
66163;SDS011;52962;51.088;3.096;2023-02-11T16:07:53;4.82;;;2.40;;
66163;SDS011;52962;51.088;3.096;2023-02-11T16:10:25;2.65;;;2.15;;
66163;SDS011;52962;51.088;3.096;2023-02-11T16:13:16;3.10;;;2.17;;
66163;SDS011;52962;51.088;3.096;2023-02-11T16:15:47;2.15;;;2.00;;
66163;SDS011;52962;51.088;3.096;2023-02-11T16:18:20;2.25;;;1.95;;
66163;SDS011;52962;51.088;3.096;2023-02-11T16:21:05;2.55;;;2.33;;
66163;SDS011;52962;51.088;3.096;2023-02-11T16:23:40;2.38;;;2.17;;
66163;SDS011;52962;51.088;3.096;2023-02-11T16:26:10;3.65;;;2.58;;
66163;SDS011;52962;51.088;3.096;2023-02-11T16:28:50;2.22;;;2.05;;